Time;durP1;ratioP1;P1;durP2;ratioP2;P2;SDS_P1;SDS_P2;PMS_P1;PMS_P2;Temp;Humidity;BMP_temperature;BMP_pressure;BME280_temperature;BME280_humidity;BME280_pressure;Samples;Min_cycle;Max_cycle;Signal;HPM_P1;HPM_P2
2022/01/29 00:01:49;;;;;;;;;;;;;;;;;;4992667;28;19916;-78
2022/01/29 00:04:16;;;;;;;;;;;;;;;;;;4993048;28;19910;-78
2022/01/29 00:06:42;;;;;;;;;;;;;;;;;;4995888;28;19921;-78
2022/01/29 00:09:13;;;;;;;;;;;;;;;;;;4996148;28;20004;-78
2022/01/29 00:11:39;;;;;;;;;;;;;;;;;;4996612;28;19906;-79
2022/01/29 00:14:06;;;;;;;;;;;;;;;;;;4996412;28;19964;-78
2022/01/29 00:16:32;;;;;;;;;;;;;;;;;;4995517;28;20385;-78
2022/01/29 00:18:57;;;;;;;;;;;;;;;;;;4996397;28;19910;-78
2022/01/29 00:21:23;;;;;;;;;;;;;;;;;;4996069;28;19964;-79
2022/01/29 00:23:49;;;;;;;;;;;;;;;;;;4996141;28;20332;-78
2022/01/29 00:26:16;;;;;;;;;;;;;;;;;;4996146;28;19910;-78
2022/01/29 00:28:42;;;;;;;;;;;;;;;;;;4996636;28;19906;-78
2022/01/29 00:31:10;;;;;;;;;;;;;;;;;;4995192;28;19976;-78
2022/01/29 00:33:36;;;;;;;;;;;;;;;;;;4996263;28;19936;-78
2022/01/29 00:36:02;;;;;;;;;;;;;;;;;;4995575;28;20381;-78
2022/01/29 00:38:28;;;;;;;;;;;;;;;;;;4996358;28;19917;-78
2022/01/29 00:40:54;;;;;;;;;;;;;;;;;;4996135;28;19940;-79
2022/01/29 00:43:19;;;;;;;;;;;;;;;;;;4995619;28;20258;-78
2022/01/29 00:45:45;;;;;;;;;;;;;;;;;;4994712;28;19914;-79
2022/01/29 00:48:11;;;;;;;;;;;;;;;;;;4976265;28;19914;-79
2022/01/29 00:50:37;;;;;;;;;;;;;;;;;;4976386;28;20278;-79
2022/01/29 00:53:03;;;;;;;;;;;;;;;;;;4976039;28;19957;-78
2022/01/29 00:55:29;;;;;;;;;;;;;;;;;;4976269;28;19957;-78
2022/01/29 00:57:55;;;;;;;;;;;;;;;;;;4976075;28;19918;-78
2022/01/29 01:00:21;;;;;;;;;;;;;;;;;;4982659;28;19913;-79
2022/01/29 01:02:47;;;;;;;;;;;;;;;;;;4996022;28;19910;-79
2022/01/29 01:05:12;;;;;;;;;;;;;;;;;;4994685;28;20496;-79
2022/01/29 01:07:38;;;;;;;;;;;;;;;;;;4995281;28;19922;-78
2022/01/29 01:10:04;;;;;;;;;;;;;;;;;;4995450;28;19956;-78
2022/01/29 01:12:30;;;;;;;;;;;;;;;;;;4995527;28;20072;-79
2022/01/29 01:14:56;;;;;;;;;;;;;;;;;;4994813;28;19914;-79
2022/01/29 01:17:22;;;;;;;;;;;;;;;;;;4993589;28;20374;-78
2022/01/29 01:19:48;;;;;;;;;;;;;;;;;;4995252;28;19917;-78
2022/01/29 01:22:15;;;;;;;;;;;;;;;;;;4994954;28;20344;-79
2022/01/29 01:24:41;;;;;;;;;;;;;;;;;;4995167;28;19953;-78
2022/01/29 01:27:07;;;;;;;;;;;;;;;;;;4995051;28;19950;-78
2022/01/29 01:29:33;;;;;;;;;;;;;;;;;;4994700;28;19946;-78
2022/01/29 01:31:59;;;;;;;;;;;;;;;;;;4994836;28;20381;-79
2022/01/29 01:34:28;;;;;;;;;;;;;;;;;;4994267;28;19979;-79
2022/01/29 01:36:59;;;;;;;;;;;;;;;;;;4994618;28;19924;-79
2022/01/29 01:39:30;;;;;;;;;;;;;;;;;;4979380;28;19925;-79
2022/01/29 01:42:14;;;;;;;;;;;;;;;;;;4992200;28;20345;-79
2022/01/29 01:44:42;;;;;;;;;;;;;;;;;;4994500;28;20009;-79
2022/01/29 01:47:08;;;;;;;;;;;;;;;;;;4994384;28;19920;-78
2022/01/29 01:49:34;;;;;;;;;;;;;;;;;;4994474;28;20286;-78
2022/01/29 01:52:00;;;;;;;;;;;;;;;;;;4994676;28;19921;-79
2022/01/29 01:54:26;;;;;;;;;;;;;;;;;;4994319;28;19956;-79
2022/01/29 01:56:52;;;;;;;;;;;;;;;;;;4994573;28;19918;-78
2022/01/29 01:59:18;;;;;;;;;;;;;;;;;;4993857;28;19914;-79
2022/01/29 02:01:44;;;;;;;;;;;;;;;;;;4994415;28;19945;-78
2022/01/29 02:04:10;;;;;;;;;;;;;;;;;;4993731;28;19968;-79
2022/01/29 02:06:36;;;;;;;;;;;;;;;;;;4994178;28;19926;-79
2022/01/29 02:09:01;;;;;;;;;;;;;;;;;;4994482;28;19910;-79
2022/01/29 02:11:27;;;;;;;;;;;;;;;;;;4994127;28;19941;-78
2022/01/29 02:13:56;;;;;;;;;;;;;;;;;;4993866;28;19961;-78
2022/01/29 02:16:22;;;;;;;;;;;;;;;;;;4994047;28;19914;-78
2022/01/29 02:18:48;;;;;;;;;;;;;;;;;;4992878;28;19913;-78
2022/01/29 02:21:14;;;;;;;;;;;;;;;;;;4993945;28;19912;-78
2022/01/29 02:23:40;;;;;;;;;;;;;;;;;;4992344;28;19928;-78
2022/01/29 02:26:06;;;;;;;;;;;;;;;;;;4994087;28;20293;-78
2022/01/29 02:28:32;;;;;;;;;;;;;;;;;;4993419;28;19924;-79
2022/01/29 02:31:00;;;;;;;;;;;;;;;;;;4994225;28;19906;-78
2022/01/29 02:33:26;;;;;;;;;;;;;;;;;;4993679;28;20564;-79
2022/01/29 02:35:52;;;;;;;;;;;;;;;;;;4993778;28;19910;-79
2022/01/29 02:38:19;;;;;;;;;;;;;;;;;;4992171;28;19913;-78
2022/01/29 02:40:50;;;;;;;;;;;;;;;;;;4993719;28;19914;-79
2022/01/29 02:43:16;;;;;;;;;;;;;;;;;;4993400;28;19932;-79
2022/01/29 02:45:43;;;;;;;;;;;;;;;;;;4993158;28;19910;-79
2022/01/29 02:48:09;;;;;;;;;;;;;;;;;;4993687;28;19945;-78
2022/01/29 02:50:35;;;;;;;;;;;;;;;;;;4993516;28;19953;-79
2022/01/29 02:53:01;;;;;;;;;;;;;;;;;;4992674;28;19922;-78
2022/01/29 02:55:29;;;;;;;;;;;;;;;;;;4993608;28;19910;-79
2022/01/29 02:57:55;;;;;;;;;;;;;;;;;;4993420;28;19914;-78
2022/01/29 03:00:21;;;;;;;;;;;;;;;;;;4991533;28;19936;-79
2022/01/29 03:02:46;;;;;;;;;;;;;;;;;;4993449;28;19929;-79
2022/01/29 03:05:12;;;;;;;;;;;;;;;;;;4993037;28;19938;-79
2022/01/29 03:07:38;;;;;;;;;;;;;;;;;;4992932;28;20435;-78
2022/01/29 03:10:04;;;;;;;;;;;;;;;;;;4993607;28;19913;-79
2022/01/29 03:12:30;;;;;;;;;;;;;;;;;;4992932;28;19964;-79
2022/01/29 03:14:56;;;;;;;;;;;;;;;;;;4992333;28;19918;-79
2022/01/29 03:17:22;;;;;;;;;;;;;;;;;;4990656;28;19944;-79
2022/01/29 03:19:50;;;;;;;;;;;;;;;;;;4993283;28;19956;-79
2022/01/29 03:22:16;;;;;;;;;;;;;;;;;;4993028;28;19910;-79
2022/01/29 03:24:42;;;;;;;;;;;;;;;;;;4992918;28;19914;-79
2022/01/29 03:27:08;;;;;;;;;;;;;;;;;;4993051;28;20276;-79
2022/01/29 03:29:34;;;;;;;;;;;;;;;;;;4992351;28;19913;-79
2022/01/29 03:32:00;;;;;;;;;;;;;;;;;;4990622;28;19960;-79
2022/01/29 03:34:26;;;;;;;;;;;;;;;;;;4992742;28;20497;-78
2022/01/29 03:36:54;;;;;;;;;;;;;;;;;;4993165;28;19914;-79
2022/01/29 03:39:21;;;;;;;;;;;;;;;;;;4991256;28;19933;-78
2022/01/29 03:41:46;;;;;;;;;;;;;;;;;;4992761;28;19913;-79
2022/01/29 03:44:12;;;;;;;;;;;;;;;;;;4991989;28;19929;-79
2022/01/29 03:46:38;;;;;;;;;;;;;;;;;;4992839;28;19917;-79
2022/01/29 03:49:04;;;;;;;;;;;;;;;;;;4992770;28;20282;-79
2022/01/29 03:51:30;;;;;;;;;;;;;;;;;;4992686;28;19910;-79
2022/01/29 03:53:56;;;;;;;;;;;;;;;;;;4992584;28;19910;-79
2022/01/29 03:56:22;;;;;;;;;;;;;;;;;;4992822;28;19920;-79
2022/01/29 03:58:48;;;;;;;;;;;;;;;;;;4991705;28;20012;-78
2022/01/29 04:01:14;;;;;;;;;;;;;;;;;;4992353;28;19913;-79
2022/01/29 04:03:40;;;;;;;;;;;;;;;;;;4991611;28;19914;-79
2022/01/29 04:06:06;;;;;;;;;;;;;;;;;;4991547;28;19976;-79
2022/01/29 04:08:39;;;;;;;;;;;;;;;;;;4992906;28;20431;-79
2022/01/29 04:11:05;;;;;;;;;;;;;;;;;;4992868;28;20020;-79
2022/01/29 04:13:31;;;;;;;;;;;;;;;;;;4991539;28;20397;-78
2022/01/29 04:15:59;;;;;;;;;;;;;;;;;;4992591;28;20024;-78
2022/01/29 04:18:25;;;;;;;;;;;;;;;;;;4992736;28;19909;-78
2022/01/29 04:20:51;;;;;;;;;;;;;;;;;;4992376;28;19910;-78
2022/01/29 04:23:17;;;;;;;;;;;;;;;;;;4991051;28;20284;-78
2022/01/29 04:25:43;;;;;;;;;;;;;;;;;;4992231;28;19917;-78
2022/01/29 04:28:11;;;;;;;;;;;;;;;;;;4992276;28;19914;-78
2022/01/29 04:30:46;;;;;;;;;;;;;;;;;;4992372;28;19913;-78
2022/01/29 04:35:40;;;;;;;;;;;;;;;;;;4992345;28;20433;-78
2022/01/29 04:38:06;;;;;;;;;;;;;;;;;;4992703;28;19918;-78
2022/01/29 04:40:34;;;;;;;;;;;;;;;;;;4989659;28;19917;-79
2022/01/29 04:42:59;;;;;;;;;;;;;;;;;;4989234;28;19921;-78
2022/01/29 04:45:25;;;;;;;;;;;;;;;;;;4992187;28;19909;-79
2022/01/29 04:47:51;;;;;;;;;;;;;;;;;;4991885;28;19964;-78
2022/01/29 04:50:17;;;;;;;;;;;;;;;;;;4992349;28;19914;-78
2022/01/29 04:52:43;;;;;;;;;;;;;;;;;;4994152;28;19910;-79
2022/01/29 04:55:09;;;;;;;;;;;;;;;;;;4995389;28;19914;-78
2022/01/29 04:57:37;;;;;;;;;;;;;;;;;;4994900;28;19922;-78
2022/01/29 05:00:03;;;;;;;;;;;;;;;;;;4995673;28;19914;-79
2022/01/29 05:02:29;;;;;;;;;;;;;;;;;;4994262;28;19960;-79
2022/01/29 05:04:55;;;;;;;;;;;;;;;;;;4993851;28;19997;-79
2022/01/29 05:07:21;;;;;;;;;;;;;;;;;;4995402;28;20372;-78
2022/01/29 05:09:47;;;;;;;;;;;;;;;;;;4995327;28;19917;-79
2022/01/29 05:12:19;;;;;;;;;;;;;;;;;;4995290;28;19910;-79
2022/01/29 05:15:05;;;;;;;;;;;;;;;;;;4995285;28;20362;-79
2022/01/29 05:28:30;;;;;;;;;;;;;;;;;;4995151;28;19964;-79
2022/01/29 05:30:56;;;;;;;;;;;;;;;;;;4994834;28;19913;-79
2022/01/29 05:33:22;;;;;;;;;;;;;;;;;;4995592;28;20374;-79
2022/01/29 05:35:48;;;;;;;;;;;;;;;;;;4993748;28;19950;-79
2022/01/29 05:38:14;;;;;;;;;;;;;;;;;;4994559;28;19939;-79
2022/01/29 05:40:40;;;;;;;;;;;;;;;;;;4994255;28;19910;-79
2022/01/29 05:43:06;;;;;;;;;;;;;;;;;;4994818;28;19913;-79
2022/01/29 05:45:31;;;;;;;;;;;;;;;;;;4994627;28;20349;-79
2022/01/29 05:47:57;;;;;;;;;;;;;;;;;;4994323;28;19926;-79
2022/01/29 05:50:23;;;;;;;;;;;;;;;;;;4994720;28;19917;-79
2022/01/29 05:52:49;;;;;;;;;;;;;;;;;;4994505;28;20365;-79
2022/01/29 05:55:15;;;;;;;;;;;;;;;;;;4993062;28;19945;-79
2022/01/29 05:57:41;;;;;;;;;;;;;;;;;;5009194;28;19920;-79
2022/01/29 06:00:07;;;;;;;;;;;;;;;;;;4994502;28;19910;-79
2022/01/29 06:02:33;;;;;;;;;;;;;;;;;;4992851;28;19910;-79
2022/01/29 06:04:59;;;;;;;;;;;;;;;;;;4994042;28;19992;-79
2022/01/29 06:07:24;;;;;;;;;;;;;;;;;;4994435;28;19925;-79
2022/01/29 06:09:50;;;;;;;;;;;;;;;;;;4994082;28;19914;-79
2022/01/29 06:12:16;;;;;;;;;;;;;;;;;;4993001;28;19921;-79
2022/01/29 06:14:42;;;;;;;;;;;;;;;;;;4994108;28;20373;-79
2022/01/29 06:17:08;;;;;;;;;;;;;;;;;;4994049;28;19913;-79
2022/01/29 06:19:34;;;;;;;;;;;;;;;;;;4994315;28;19914;-79
2022/01/29 06:22:06;;;;;;;;;;;;;;;;;;4993709;28;20385;-79
2022/01/29 06:24:32;;;;;;;;;;;;;;;;;;4992915;28;19918;-80
2022/01/29 06:26:58;;;;;;;;;;;;;;;;;;4993804;28;19992;-79
2022/01/29 06:29:24;;;;;;;;;;;;;;;;;;4994124;28;19964;-79
2022/01/29 06:31:57;;;;;;;;;;;;;;;;;;4994811;28;19909;-79
2022/01/29 06:34:23;;;;;;;;;;;;;;;;;;4994318;28;19926;-79
2022/01/29 06:36:48;;;;;;;;;;;;;;;;;;4994290;28;19914;-79
2022/01/29 06:39:14;;;;;;;;;;;;;;;;;;4994113;28;19977;-79
2022/01/29 06:41:40;;;;;;;;;;;;;;;;;;4994498;28;19906;-79
2022/01/29 06:44:06;;;;;;;;;;;;;;;;;;4994414;28;19909;-79
2022/01/29 06:46:32;;;;;;;;;;;;;;;;;;4994339;28;20281;-79
2022/01/29 06:48:58;;;;;;;;;;;;;;;;;;4994180;28;19906;-79
2022/01/29 06:51:24;;;;;;;;;;;;;;;;;;4993943;28;19910;-79
2022/01/29 06:53:50;;;;;;;;;;;;;;;;;;4993772;28;20285;-79
2022/01/29 06:56:16;;;;;;;;;;;;;;;;;;4994096;28;19992;-78
2022/01/29 06:58:41;;;;;;;;;;;;;;;;;;4993901;28;20012;-78
2022/01/29 07:01:07;;;;;;;;;;;;;;;;;;4994087;28;19914;-78
2022/01/29 07:03:33;;;;;;;;;;;;;;;;;;4994159;28;19917;-79
2022/01/29 07:05:59;;;;;;;;;;;;;;;;;;4998387;28;20296;-78
2022/01/29 07:08:25;;;;;;;;;;;;;;;;;;4996970;28;20007;-78
2022/01/29 07:10:52;;;;;;;;;;;;;;;;;;4993835;28;19910;-78
2022/01/29 07:13:20;;;;;;;;;;;;;;;;;;4993783;28;19949;-78
2022/01/29 07:15:46;;;;;;;;;;;;;;;;;;4993468;28;19917;-78
2022/01/29 07:18:12;;;;;;;;;;;;;;;;;;4993548;28;19913;-78
2022/01/29 07:20:38;;;;;;;;;;;;;;;;;;4993394;28;19913;-78
2022/01/29 07:23:06;;;;;;;;;;;;;;;;;;4992904;28;19956;-79
2022/01/29 07:25:32;;;;;;;;;;;;;;;;;;4991682;28;19910;-80
2022/01/29 07:27:58;;;;;;;;;;;;;;;;;;4991293;28;19921;-80
2022/01/29 07:30:25;;;;;;;;;;;;;;;;;;4992896;28;19916;-80
2022/01/29 07:32:50;;;;;;;;;;;;;;;;;;4991315;28;19913;-80
2022/01/29 07:35:16;;;;;;;;;;;;;;;;;;4992396;28;20328;-80
2022/01/29 07:37:42;;;;;;;;;;;;;;;;;;4992725;28;19920;-80
2022/01/29 07:40:08;;;;;;;;;;;;;;;;;;4992627;28;19910;-80
2022/01/29 07:42:34;;;;;;;;;;;;;;;;;;4993098;28;19910;-80
2022/01/29 07:45:00;;;;;;;;;;;;;;;;;;4992944;28;19914;-78
2022/01/29 07:47:26;;;;;;;;;;;;;;;;;;4992747;28;19916;-80
2022/01/29 07:49:52;;;;;;;;;;;;;;;;;;4992641;28;19914;-77
2022/01/29 07:52:18;;;;;;;;;;;;;;;;;;4992404;28;19910;-80
2022/01/29 07:54:44;;;;;;;;;;;;;;;;;;4992838;28;19917;-79
2022/01/29 07:57:10;;;;;;;;;;;;;;;;;;4992502;28;19945;-79
2022/01/29 07:59:35;;;;;;;;;;;;;;;;;;4992955;28;19956;-79
2022/01/29 08:02:01;;;;;;;;;;;;;;;;;;4992512;28;20266;-79
2022/01/29 08:04:27;;;;;;;;;;;;;;;;;;4991134;28;19913;-77
2022/01/29 08:06:53;;;;;;;;;;;;;;;;;;4990607;28;19921;-80
2022/01/29 08:09:19;;;;;;;;;;;;;;;;;;4992309;28;20420;-77
2022/01/29 08:11:45;;;;;;;;;;;;;;;;;;4993450;28;19910;-75
2022/01/29 08:14:11;;;;;;;;;;;;;;;;;;4999104;28;19921;-76
2022/01/29 08:16:37;;;;;;;;;;;;;;;;;;4993333;28;20396;-76
2022/01/29 08:19:03;;;;;;;;;;;;;;;;;;4991966;28;19953;-76
2022/01/29 08:21:29;;;;;;;;;;;;;;;;;;4992661;28;19909;-76
2022/01/29 08:23:54;;;;;;;;;;;;;;;;;;4992499;28;20412;-76
2022/01/29 08:26:20;;;;;;;;;;;;;;;;;;4994223;28;19910;-76
2022/01/29 08:28:46;;;;;;;;;;;;;;;;;;5010184;28;19914;-78
2022/01/29 08:31:12;;;;;;;;;;;;;;;;;;4995961;28;19953;-79
2022/01/29 08:33:38;;;;;;;;;;;;;;;;;;4996192;28;20009;-76
2022/01/29 08:36:04;;;;;;;;;;;;;;;;;;4995600;28;19910;-76
2022/01/29 08:38:30;;;;;;;;;;;;;;;;;;4995172;28;19918;-78
2022/01/29 08:40:58;;;;;;;;;;;;;;;;;;4995754;28;20436;-76
2022/01/29 08:43:23;;;;;;;;;;;;;;;;;;4995802;28;19910;-77
2022/01/29 08:45:50;;;;;;;;;;;;;;;;;;4995999;28;19917;-79
2022/01/29 08:48:16;;;;;;;;;;;;;;;;;;4994492;28;19914;-80
2022/01/29 08:50:41;;;;;;;;;;;;;;;;;;4993892;28;19988;-76
2022/01/29 08:53:07;;;;;;;;;;;;;;;;;;4992816;28;19928;-79
2022/01/29 08:55:36;;;;;;;;;;;;;;;;;;4993825;28;19910;-77
2022/01/29 08:58:02;;;;;;;;;;;;;;;;;;4994865;28;19921;-77
2022/01/29 09:00:28;;;;;;;;;;;;;;;;;;4993473;28;20641;-77
2022/01/29 09:02:54;;;;;;;;;;;;;;;;;;4992892;28;19945;-77
2022/01/29 09:05:20;;;;;;;;;;;;;;;;;;4992509;28;19918;-77
2022/01/29 09:07:47;;;;;;;;;;;;;;;;;;4994379;28;19925;-77
2022/01/29 09:10:13;;;;;;;;;;;;;;;;;;4994076;28;19909;-77
2022/01/29 09:12:39;;;;;;;;;;;;;;;;;;4993989;28;20431;-76
2022/01/29 09:15:05;;;;;;;;;;;;;;;;;;4994195;28;19918;-76
2022/01/29 09:17:31;;;;;;;;;;;;;;;;;;4994029;28;19968;-77
2022/01/29 09:19:57;;;;;;;;;;;;;;;;;;4992665;28;19918;-76
2022/01/29 09:22:23;;;;;;;;;;;;;;;;;;4993682;28;19949;-77
2022/01/29 09:24:49;;;;;;;;;;;;;;;;;;4995128;28;20006;-76
2022/01/29 09:27:15;;;;;;;;;;;;;;;;;;4993645;28;19914;-76
2022/01/29 09:29:41;;;;;;;;;;;;;;;;;;4995277;28;19910;-76
2022/01/29 09:32:07;;;;;;;;;;;;;;;;;;4995002;28;20325;-78
2022/01/29 09:34:33;;;;;;;;;;;;;;;;;;4995193;28;19910;-77
2022/01/29 09:36:59;;;;;;;;;;;;;;;;;;4995053;28;19920;-78
2022/01/29 09:39:25;;;;;;;;;;;;;;;;;;4994939;28;20293;-77
2022/01/29 09:41:50;;;;;;;;;;;;;;;;;;4994427;28;20012;-77
2022/01/29 09:44:16;;;;;;;;;;;;;;;;;;4995752;28;20013;-77
2022/01/29 09:46:44;;;;;;;;;;;;;;;;;;4995377;28;19910;-78
2022/01/29 09:49:12;;;;;;;;;;;;;;;;;;4993970;28;19921;-75
2022/01/29 09:51:41;;;;;;;;;;;;;;;;;;4995239;28;19956;-76
2022/01/29 09:54:07;;;;;;;;;;;;;;;;;;4995403;28;19943;-76
2022/01/29 09:56:33;;;;;;;;;;;;;;;;;;4995243;28;19914;-76
2022/01/29 09:58:59;;;;;;;;;;;;;;;;;;4993869;28;19910;-76
2022/01/29 10:01:25;;;;;;;;;;;;;;;;;;4994899;28;19909;-76
2022/01/29 10:03:50;;;;;;;;;;;;;;;;;;4994878;28;19937;-75
2022/01/29 10:06:17;;;;;;;;;;;;;;;;;;5001844;28;19922;-76
2022/01/29 10:08:43;;;;;;;;;;;;;;;;;;5014507;28;19916;-75
2022/01/29 10:11:08;;;;;;;;;;;;;;;;;;5006724;28;19913;-76
2022/01/29 10:13:34;;;;;;;;;;;;;;;;;;4995073;28;19909;-76
2022/01/29 10:16:00;;;;;;;;;;;;;;;;;;4994772;28;19957;-76
2022/01/29 10:18:26;;;;;;;;;;;;;;;;;;4994190;28;19937;-75
2022/01/29 10:20:52;;;;;;;;;;;;;;;;;;4994872;28;19910;-75
2022/01/29 10:23:18;;;;;;;;;;;;;;;;;;4994765;28;20361;-75
2022/01/29 10:25:44;;;;;;;;;;;;;;;;;;4994713;28;19913;-76
2022/01/29 10:28:11;;;;;;;;;;;;;;;;;;4994473;28;19909;-75
2022/01/29 10:30:37;;;;;;;;;;;;;;;;;;4994266;28;20123;-75
2022/01/29 10:33:03;;;;;;;;;;;;;;;;;;4995001;28;19952;-75
2022/01/29 10:35:29;;;;;;;;;;;;;;;;;;4994607;28;20396;-76
2022/01/29 10:37:54;;;;;;;;;;;;;;;;;;4994387;28;19914;-75
2022/01/29 10:40:26;;;;;;;;;;;;;;;;;;4994714;28;19981;-75
2022/01/29 10:42:52;;;;;;;;;;;;;;;;;;4994227;28;20370;-76
2022/01/29 10:45:18;;;;;;;;;;;;;;;;;;4993467;28;19917;-75
2022/01/29 10:47:44;;;;;;;;;;;;;;;;;;4993297;28;19916;-76
2022/01/29 10:50:10;;;;;;;;;;;;;;;;;;4994542;28;19931;-75
2022/01/29 10:52:36;;;;;;;;;;;;;;;;;;4994060;28;20350;-76
2022/01/29 10:55:02;;;;;;;;;;;;;;;;;;4993917;28;19959;-75
2022/01/29 10:57:28;;;;;;;;;;;;;;;;;;4994088;28;20369;-76
2022/01/29 10:59:54;;;;;;;;;;;;;;;;;;4993768;28;19956;-76
2022/01/29 11:02:20;;;;;;;;;;;;;;;;;;4994065;28;19916;-75
2022/01/29 11:04:47;;;;;;;;;;;;;;;;;;4993823;28;19909;-75
2022/01/29 11:07:24;;;;;;;;;;;;;;;;;;4993889;28;19922;-75
2022/01/29 11:09:53;;;;;;;;;;;;;;;;;;4993659;28;19917;-75
2022/01/29 11:12:19;;;;;;;;;;;;;;;;;;4994259;28;19917;-75
2022/01/29 11:14:45;;;;;;;;;;;;;;;;;;4993517;28;19910;-76
2022/01/29 11:17:11;;;;;;;;;;;;;;;;;;4993559;28;20009;-74
2022/01/29 11:19:39;;;;;;;;;;;;;;;;;;4993013;28;20568;-76
2022/01/29 11:22:05;;;;;;;;;;;;;;;;;;4993904;28;19932;-75
2022/01/29 11:24:30;;;;;;;;;;;;;;;;;;4993851;28;19910;-76
2022/01/29 11:26:56;;;;;;;;;;;;;;;;;;4993892;28;20274;-77
2022/01/29 11:29:22;;;;;;;;;;;;;;;;;;4993623;28;19910;-76
2022/01/29 11:31:48;;;;;;;;;;;;;;;;;;4993652;28;20269;-79
2022/01/29 11:34:14;;;;;;;;;;;;;;;;;;4993488;28;19909;-78
2022/01/29 11:36:40;;;;;;;;;;;;;;;;;;4993169;28;19921;-81
2022/01/29 11:39:06;;;;;;;;;;;;;;;;;;4993652;28;19910;-80
2022/01/29 11:41:32;;;;;;;;;;;;;;;;;;4991282;28;19913;-77
2022/01/29 11:43:58;;;;;;;;;;;;;;;;;;4992408;28;20293;-78
2022/01/29 11:46:31;;;;;;;;;;;;;;;;;;4991934;28;19909;-78
2022/01/29 11:48:58;;;;;;;;;;;;;;;;;;4993041;28;20005;-78
2022/01/29 11:51:24;;;;;;;;;;;;;;;;;;4991926;28;19914;-77
2022/01/29 11:53:50;;;;;;;;;;;;;;;;;;4991372;28;19914;-78
2022/01/29 11:56:16;;;;;;;;;;;;;;;;;;4992023;28;20285;-77
2022/01/29 11:58:42;;;;;;;;;;;;;;;;;;4991093;28;20016;-77
2022/01/29 12:01:08;;;;;;;;;;;;;;;;;;4989745;28;19910;-78
2022/01/29 12:03:43;;;;;;;;;;;;;;;;;;4995422;28;20004;-78
2022/01/29 12:08:42;;;;;;;;;;;;;;;;;;4997435;28;20012;-76
2022/01/29 12:11:08;;;;;;;;;;;;;;;;;;4996728;28;19909;-76
2022/01/29 12:13:34;;;;;;;;;;;;;;;;;;4997342;28;20008;-76
2022/01/29 12:16:00;;;;;;;;;;;;;;;;;;4996704;28;19910;-77
2022/01/29 12:18:26;;;;;;;;;;;;;;;;;;4996606;28;19922;-75
2022/01/29 12:20:52;;;;;;;;;;;;;;;;;;4997363;28;19933;-77
2022/01/29 12:23:17;;;;;;;;;;;;;;;;;;4996567;28;19917;-76
2022/01/29 12:25:43;;;;;;;;;;;;;;;;;;4996497;28;19910;-76
2022/01/29 12:28:09;;;;;;;;;;;;;;;;;;4997071;28;19909;-76
2022/01/29 12:30:35;;;;;;;;;;;;;;;;;;4997085;28;19916;-77
2022/01/29 12:33:01;;;;;;;;;;;;;;;;;;4996808;28;19909;-77
2022/01/29 12:35:27;;;;;;;;;;;;;;;;;;4996640;28;19914;-76
2022/01/29 12:37:54;;;;;;;;;;;;;;;;;;4996027;28;19944;-76
2022/01/29 12:40:22;;;;;;;;;;;;;;;;;;4996494;28;19965;-79
2022/01/29 12:42:59;;;;;;;;;;;;;;;;;;4996459;28;19957;-76
2022/01/29 12:45:25;;;;;;;;;;;;;;;;;;4996592;28;19910;-77
2022/01/29 12:47:51;;;;;;;;;;;;;;;;;;4995855;28;20032;-76
2022/01/29 12:50:17;;;;;;;;;;;;;;;;;;4995925;28;19910;-81
2022/01/29 12:52:43;;;;;;;;;;;;;;;;;;4994454;28;19910;-77
2022/01/29 12:55:09;;;;;;;;;;;;;;;;;;4995564;28;19920;-76
2022/01/29 12:57:35;;;;;;;;;;;;;;;;;;4977942;28;20651;-75
2022/01/29 13:00:01;;;;;;;;;;;;;;;;;;4993655;28;19914;-75
2022/01/29 13:02:27;;;;;;;;;;;;;;;;;;4993588;28;19972;-75
2022/01/29 13:04:52;;;;;;;;;;;;;;;;;;4993937;28;20313;-76
2022/01/29 13:07:18;;;;;;;;;;;;;;;;;;4994072;28;19926;-76
2022/01/29 13:09:44;;;;;;;;;;;;;;;;;;4993470;28;19918;-76
2022/01/29 13:12:12;;;;;;;;;;;;;;;;;;4991992;28;19914;-76
2022/01/29 13:14:37;;;;;;;;;;;;;;;;;;4994452;28;19913;-76
2022/01/29 13:17:04;;;;;;;;;;;;;;;;;;4994466;28;19913;-76
2022/01/29 13:19:30;;;;;;;;;;;;;;;;;;4995086;28;20293;-77
2022/01/29 13:21:56;;;;;;;;;;;;;;;;;;4994644;28;20004;-76
2022/01/29 13:24:23;;;;;;;;;;;;;;;;;;4994651;28;19925;-76
2022/01/29 13:26:49;;;;;;;;;;;;;;;;;;4993972;28;19956;-76
2022/01/29 13:29:17;;;;;;;;;;;;;;;;;;4994275;28;19909;-77
2022/01/29 13:31:44;;;;;;;;;;;;;;;;;;4992941;28;19913;-77
2022/01/29 13:34:09;;;;;;;;;;;;;;;;;;4993840;28;19913;-76
2022/01/29 13:36:35;;;;;;;;;;;;;;;;;;4994250;28;20305;-76
2022/01/29 13:39:06;;;;;;;;;;;;;;;;;;4994619;28;20022;-76
2022/01/29 13:41:32;;;;;;;;;;;;;;;;;;4994361;28;19973;-77
2022/01/29 13:43:58;;;;;;;;;;;;;;;;;;4995339;28;20676;-76
2022/01/29 13:46:27;;;;;;;;;;;;;;;;;;4994853;28;19957;-76
2022/01/29 13:48:55;;;;;;;;;;;;;;;;;;4994378;28;20255;-77
2022/01/29 13:51:21;;;;;;;;;;;;;;;;;;4993583;28;19913;-77
2022/01/29 13:53:47;;;;;;;;;;;;;;;;;;4993889;28;19914;-77
2022/01/29 13:56:13;;;;;;;;;;;;;;;;;;4994099;28;19909;-77
2022/01/29 13:58:39;;;;;;;;;;;;;;;;;;4994503;28;20281;-76
2022/01/29 14:01:04;;;;;;;;;;;;;;;;;;4994850;28;19999;-77
2022/01/29 14:03:30;;;;;;;;;;;;;;;;;;4993063;28;20405;-76
2022/01/29 14:05:56;;;;;;;;;;;;;;;;;;4998493;28;20004;-77
2022/01/29 14:08:23;;;;;;;;;;;;;;;;;;4996048;28;19949;-76
2022/01/29 14:10:49;;;;;;;;;;;;;;;;;;4995044;28;19910;-76
2022/01/29 14:13:17;;;;;;;;;;;;;;;;;;4995269;28;19933;-76
2022/01/29 14:15:47;;;;;;;;;;;;;;;;;;4994501;28;20004;-77
2022/01/29 14:18:13;;;;;;;;;;;;;;;;;;4995072;28;19913;-76
2022/01/29 14:20:39;;;;;;;;;;;;;;;;;;4994656;28;19916;-76
2022/01/29 14:23:05;;;;;;;;;;;;;;;;;;4994560;28;19953;-76
2022/01/29 14:25:31;;;;;;;;;;;;;;;;;;4994329;28;20029;-76
2022/01/29 14:27:57;;;;;;;;;;;;;;;;;;4994452;28;19924;-77
2022/01/29 14:30:23;;;;;;;;;;;;;;;;;;4994703;28;19965;-77
2022/01/29 14:32:49;;;;;;;;;;;;;;;;;;4993291;28;20352;-77
2022/01/29 14:35:15;;;;;;;;;;;;;;;;;;4994765;28;19913;-77
2022/01/29 14:37:41;;;;;;;;;;;;;;;;;;4993614;28;19983;-76
2022/01/29 14:40:09;;;;;;;;;;;;;;;;;;4994533;28;19950;-76
2022/01/29 14:42:35;;;;;;;;;;;;;;;;;;4994233;28;20402;-76
2022/01/29 14:45:01;;;;;;;;;;;;;;;;;;4994305;28;19910;-76
2022/01/29 14:47:28;;;;;;;;;;;;;;;;;;4994228;28;19910;-76
2022/01/29 14:49:55;;;;;;;;;;;;;;;;;;4994762;28;19910;-76
2022/01/29 14:52:21;;;;;;;;;;;;;;;;;;4994149;28;20377;-76
2022/01/29 14:54:47;;;;;;;;;;;;;;;;;;4993573;28;20117;-76
2022/01/29 14:57:13;;;;;;;;;;;;;;;;;;4994202;28;19920;-76
2022/01/29 14:59:38;;;;;;;;;;;;;;;;;;4994083;28;19929;-78
2022/01/29 15:02:04;;;;;;;;;;;;;;;;;;4993467;28;19914;-76
2022/01/29 15:04:31;;;;;;;;;;;;;;;;;;4993517;28;20286;-76
2022/01/29 15:06:59;;;;;;;;;;;;;;;;;;4992841;28;20301;-77
2022/01/29 15:09:26;;;;;;;;;;;;;;;;;;4994099;28;20354;-76
2022/01/29 15:11:52;;;;;;;;;;;;;;;;;;4992959;28;20456;-76
2022/01/29 15:14:17;;;;;;;;;;;;;;;;;;4992904;28;19949;-76
2022/01/29 15:16:44;;;;;;;;;;;;;;;;;;4992861;28;20008;-76
2022/01/29 15:19:09;;;;;;;;;;;;;;;;;;4993032;28;20029;-76
2022/01/29 15:21:35;;;;;;;;;;;;;;;;;;4993554;28;20377;-77
2022/01/29 15:24:03;;;;;;;;;;;;;;;;;;4993622;28;19914;-77
2022/01/29 15:26:29;;;;;;;;;;;;;;;;;;4992963;28;19917;-77
2022/01/29 15:28:55;;;;;;;;;;;;;;;;;;4992680;28;19910;-76
2022/01/29 15:31:23;;;;;;;;;;;;;;;;;;4993815;28;19910;-76
2022/01/29 15:33:50;;;;;;;;;;;;;;;;;;4993269;28;19988;-76
2022/01/29 15:36:16;;;;;;;;;;;;;;;;;;4992490;28;20337;-76
2022/01/29 15:38:42;;;;;;;;;;;;;;;;;;4993537;28;19910;-76
2022/01/29 15:41:08;;;;;;;;;;;;;;;;;;4992635;28;19976;-76
2022/01/29 15:43:34;;;;;;;;;;;;;;;;;;4993612;28;19978;-76
2022/01/29 15:46:00;;;;;;;;;;;;;;;;;;4992944;28;19948;-76
2022/01/29 15:48:26;;;;;;;;;;;;;;;;;;4993203;28;19917;-76
2022/01/29 15:50:55;;;;;;;;;;;;;;;;;;4991585;28;19910;-76
2022/01/29 15:53:21;;;;;;;;;;;;;;;;;;4992929;28;19917;-77
2022/01/29 15:55:47;;;;;;;;;;;;;;;;;;4991600;28;19920;-76
2022/01/29 15:58:18;;;;;;;;;;;;;;;;;;4992856;28;19937;-77
2022/01/29 16:00:46;;;;;;;;;;;;;;;;;;4989733;28;19914;-76
2022/01/29 16:03:12;;;;;;;;;;;;;;;;;;4991864;28;19914;-77
2022/01/29 16:05:38;;;;;;;;;;;;;;;;;;4992507;28;19968;-77
2022/01/29 16:08:04;;;;;;;;;;;;;;;;;;4993110;28;20009;-77
2022/01/29 16:10:30;;;;;;;;;;;;;;;;;;4993079;28;19916;-77
2022/01/29 16:12:56;;;;;;;;;;;;;;;;;;4993770;28;19916;-77
2022/01/29 16:15:22;;;;;;;;;;;;;;;;;;4993078;28;19906;-76
2022/01/29 16:17:48;;;;;;;;;;;;;;;;;;4992669;28;19918;-77
2022/01/29 16:20:13;;;;;;;;;;;;;;;;;;4993516;28;20329;-77
2022/01/29 16:22:42;;;;;;;;;;;;;;;;;;4992907;28;20300;-76
2022/01/29 16:25:09;;;;;;;;;;;;;;;;;;4992920;28;20297;-77
2022/01/29 16:27:45;;;;;;;;;;;;;;;;;;4992552;28;19913;-77
2022/01/29 16:30:11;;;;;;;;;;;;;;;;;;4992404;28;19909;-77
2022/01/29 16:32:37;;;;;;;;;;;;;;;;;;4992389;28;19916;-76
2022/01/29 16:35:03;;;;;;;;;;;;;;;;;;4992962;28;19917;-76
2022/01/29 16:37:28;;;;;;;;;;;;;;;;;;4992798;28;19921;-77
2022/01/29 16:39:54;;;;;;;;;;;;;;;;;;4993323;28;19917;-76
2022/01/29 16:42:20;;;;;;;;;;;;;;;;;;4992759;28;19914;-76
2022/01/29 16:44:46;;;;;;;;;;;;;;;;;;4993476;28;19910;-76
2022/01/29 16:47:12;;;;;;;;;;;;;;;;;;4990402;28;19914;-77
2022/01/29 16:49:38;;;;;;;;;;;;;;;;;;4993138;28;19910;-76
2022/01/29 16:52:04;;;;;;;;;;;;;;;;;;4994194;28;19917;-76
2022/01/29 16:54:30;;;;;;;;;;;;;;;;;;4993928;28;19910;-76
2022/01/29 16:56:57;;;;;;;;;;;;;;;;;;4996275;28;20296;-76